Time;durP1;ratioP1;P1;durP2;ratioP2;P2;SDS_P1;SDS_P2;PMS_P1;PMS_P2;Temp;Humidity;BMP_temperature;BMP_pressure;BME280_temperature;BME280_humidity;BME280_pressure;Samples;Min_cycle;Max_cycle;Signal;HPM_P1;HPM_P2
2023/01/17 00:01:07;;;;;;;0.90;0.40;;;;;;;;;;4953793;28;20557;-66
2023/01/17 00:03:33;;;;;;;0.93;0.50;;;;;;;;;;4954224;28;20274;-66
2023/01/17 00:11:25;;;;;;;1.37;0.50;;;;;;;;;;4934484;29;20737;-66
2023/01/17 00:13:51;;;;;;;1.87;0.30;;;;;;;;;;4917407;29;20215;-66
2023/01/17 00:16:16;;;;;;;1.80;0.40;;;;;;;;;;4934603;29;20219;-66
2023/01/17 00:26:01;;;;;;;0.90;0.50;;;;;;;;;;4935064;29;20726;-66
2023/01/17 01:35:54;;;;;;;2.67;0.57;;;;;;;;;;4946966;28;20246;-66
2023/01/17 01:38:21;;;;;;;2.33;0.70;;;;;;;;;;4944155;28;20265;-66
2023/01/17 01:40:47;;;;;;;1.60;0.60;;;;;;;;;;4926036;29;20633;-66
2023/01/17 01:43:13;;;;;;;2.90;0.70;;;;;;;;;;4938762;28;21121;-66
2023/01/17 01:45:38;;;;;;;1.87;0.50;;;;;;;;;;4937764;28;20217;-66
2023/01/17 01:48:21;;;;;;;1.60;0.57;;;;;;;;;;4940534;28;20296;-66
2023/01/17 01:50:46;;;;;;;1.10;0.30;;;;;;;;;;4940249;28;20271;-66
2023/01/17 01:53:12;;;;;;;1.20;0.40;;;;;;;;;;4926294;29;20325;-66
2023/01/17 01:55:38;;;;;;;2.43;0.50;;;;;;;;;;4927819;29;20354;-66
2023/01/17 01:58:06;;;;;;;1.37;0.37;;;;;;;;;;4945242;28;20297;-65
2023/01/17 02:00:32;;;;;;;0.83;0.27;;;;;;;;;;4946760;28;20357;-66
2023/01/17 02:02:59;;;;;;;0.70;0.30;;;;;;;;;;4944403;28;20238;-66
2023/01/17 02:05:24;;;;;;;1.43;0.20;;;;;;;;;;4937631;28;20769;-66
2023/01/17 02:07:49;;;;;;;1.67;0.40;;;;;;;;;;4919809;29;20219;-66
2023/01/17 02:10:15;;;;;;;0.23;0.20;;;;;;;;;;4919611;29;20262;-66
2023/01/17 02:12:40;;;;;;;0.83;0.27;;;;;;;;;;4926934;29;20696;-66
2023/01/17 02:15:06;;;;;;;1.13;0.20;;;;;;;;;;4925393;29;20695;-66
2023/01/17 02:17:31;;;;;;;0.80;0.37;;;;;;;;;;4926494;29;20219;-66
2023/01/17 02:20:09;;;;;;;0.90;0.30;;;;;;;;;;4926558;29;20265;-66
2023/01/17 02:22:43;;;;;;;0.87;0.27;;;;;;;;;;4945435;28;20253;-66
2023/01/17 02:25:16;;;;;;;1.63;0.27;;;;;;;;;;4940114;28;20569;-66
2023/01/17 02:27:52;;;;;;;0.77;0.30;;;;;;;;;;4919531;29;20223;-66
2023/01/17 02:30:18;;;;;;;1.40;0.30;;;;;;;;;;4935563;28;20222;-66
2023/01/17 02:32:43;;;;;;;1.60;0.20;;;;;;;;;;4937736;28;20736;-66
2023/01/17 02:35:12;;;;;;;0.43;0.20;;;;;;;;;;4945190;28;20758;-66
2023/01/17 02:37:44;;;;;;;0.60;0.30;;;;;;;;;;4945217;28;20218;-66
2023/01/17 02:40:18;;;;;;;2.53;0.30;;;;;;;;;;4944579;28;20214;-66
2023/01/17 02:42:44;;;;;;;0.97;0.40;;;;;;;;;;4929186;29;20682;-66
2023/01/17 02:45:14;;;;;;;1.37;0.40;;;;;;;;;;4949745;28;20244;-66
2023/01/17 02:47:39;;;;;;;1.20;0.50;;;;;;;;;;4954468;28;20555;-66
2023/01/17 02:50:07;;;;;;;1.40;0.40;;;;;;;;;;4954188;28;20224;-65
2023/01/17 02:52:47;;;;;;;0.70;0.40;;;;;;;;;;4955369;28;20218;-66
2023/01/17 02:55:21;;;;;;;0.80;0.30;;;;;;;;;;4953767;28;20228;-65
2023/01/17 02:57:50;;;;;;;1.30;0.40;;;;;;;;;;4955420;28;20685;-66
2023/01/17 03:00:15;;;;;;;2.13;0.60;;;;;;;;;;4954615;28;20218;-66
2023/01/17 03:02:56;;;;;;;1.30;0.57;;;;;;;;;;4954326;28;20225;-66
2023/01/17 03:05:31;;;;;;;0.73;0.40;;;;;;;;;;4937667;28;20270;-66
2023/01/17 03:07:56;;;;;;;2.33;0.80;;;;;;;;;;4935224;29;20666;-65
2023/01/17 03:10:22;;;;;;;2.30;0.57;;;;;;;;;;4934185;29;20318;-66
2023/01/17 03:12:47;;;;;;;1.70;0.70;;;;;;;;;;4939001;29;20231;-66
2023/01/17 03:15:13;;;;;;;1.13;0.60;;;;;;;;;;4934554;29;20286;-65
2023/01/17 03:17:39;;;;;;;1.57;0.60;;;;;;;;;;4935768;29;20286;-65
2023/01/17 03:20:05;;;;;;;3.90;0.70;;;;;;;;;;4934017;29;20633;-65
2023/01/17 03:22:30;;;;;;;1.50;0.60;;;;;;;;;;4934902;29;20219;-66
2023/01/17 03:24:55;;;;;;;0.97;0.40;;;;;;;;;;4938711;29;20206;-66
2023/01/17 03:27:21;;;;;;;2.63;0.50;;;;;;;;;;4954158;29;20714;-65
2023/01/17 03:29:46;;;;;;;2.23;0.70;;;;;;;;;;4953702;29;20210;-66
2023/01/17 03:32:11;;;;;;;0.57;0.43;;;;;;;;;;4953965;29;20262;-66
2023/01/17 03:34:37;;;;;;;0.50;0.33;;;;;;;;;;4954619;29;20210;-66
2023/01/17 03:37:02;;;;;;;1.43;0.40;;;;;;;;;;4953059;28;20249;-65
2023/01/17 03:39:27;;;;;;;1.33;0.40;;;;;;;;;;4954512;29;20221;-66
2023/01/17 03:41:52;;;;;;;1.43;0.40;;;;;;;;;;4942405;29;20218;-66
2023/01/17 03:44:18;;;;;;;0.60;0.30;;;;;;;;;;4950099;28;20685;-66
2023/01/17 03:46:43;;;;;;;0.30;0.30;;;;;;;;;;4954280;28;20608;-66
2023/01/17 03:49:08;;;;;;;2.03;0.40;;;;;;;;;;4954009;29;20686;-66
2023/01/17 03:51:34;;;;;;;1.80;0.40;;;;;;;;;;4951676;28;20218;-66
2023/01/17 03:53:59;;;;;;;0.60;0.40;;;;;;;;;;4954113;28;20214;-66
2023/01/17 03:56:24;;;;;;;0.50;0.40;;;;;;;;;;4954073;28;20641;-66
2023/01/17 03:58:50;;;;;;;0.97;0.37;;;;;;;;;;4953709;28;20217;-65
2023/01/17 04:01:15;;;;;;;1.40;0.50;;;;;;;;;;4953702;28;20258;-65
2023/01/17 04:03:41;;;;;;;1.80;0.40;;;;;;;;;;4954323;28;20214;-66
2023/01/17 04:06:06;;;;;;;1.90;0.50;;;;;;;;;;4952951;28;20293;-65
2023/01/17 04:08:31;;;;;;;0.67;0.30;;;;;;;;;;4953990;29;20206;-66
2023/01/17 04:10:57;;;;;;;1.60;0.60;;;;;;;;;;4953928;29;20246;-65
2023/01/17 04:13:22;;;;;;;1.93;0.50;;;;;;;;;;4953351;29;20293;-66
2023/01/17 04:15:48;;;;;;;3.40;0.50;;;;;;;;;;4954135;29;20250;-66
2023/01/17 04:18:15;;;;;;;2.17;0.60;;;;;;;;;;4935955;29;20214;-66
2023/01/17 04:20:40;;;;;;;1.83;0.67;;;;;;;;;;4954116;29;20225;-66
2023/01/17 04:23:05;;;;;;;1.83;0.43;;;;;;;;;;4953475;29;20591;-65
2023/01/17 04:25:31;;;;;;;1.23;0.50;;;;;;;;;;4953508;29;20217;-66
2023/01/17 04:27:57;;;;;;;1.97;0.70;;;;;;;;;;4954053;29;20217;-65
2023/01/17 04:30:22;;;;;;;2.13;0.70;;;;;;;;;;4953243;29;20222;-65
2023/01/17 04:32:47;;;;;;;1.97;0.70;;;;;;;;;;4953167;29;20222;-66
2023/01/17 04:35:13;;;;;;;1.57;0.80;;;;;;;;;;4953274;28;20207;-65
2023/01/17 04:37:38;;;;;;;2.70;0.80;;;;;;;;;;4953997;29;20631;-66
2023/01/17 04:40:04;;;;;;;1.77;0.60;;;;;;;;;;4952613;29;20211;-65
2023/01/17 04:42:29;;;;;;;2.50;0.80;;;;;;;;;;4936889;29;20750;-66
2023/01/17 04:44:54;;;;;;;2.07;0.60;;;;;;;;;;4935113;29;20219;-66
2023/01/17 04:47:20;;;;;;;1.60;0.60;;;;;;;;;;4933597;29;20215;-66
2023/01/17 04:49:45;;;;;;;2.33;0.70;;;;;;;;;;4934823;29;20670;-66
2023/01/17 04:52:10;;;;;;;2.53;0.67;;;;;;;;;;4950829;28;20231;-66
2023/01/17 04:54:36;;;;;;;1.93;0.63;;;;;;;;;;4952309;28;20214;-66
2023/01/17 04:57:01;;;;;;;3.23;0.70;;;;;;;;;;4953482;28;20211;-65
2023/01/17 04:59:26;;;;;;;1.90;0.77;;;;;;;;;;4953892;28;20650;-66
2023/01/17 05:01:52;;;;;;;3.87;0.63;;;;;;;;;;4953039;28;20210;-66
2023/01/17 05:04:17;;;;;;;2.80;0.90;;;;;;;;;;4964137;28;20226;-66
2023/01/17 05:06:43;;;;;;;3.43;1.20;;;;;;;;;;4962632;28;20274;-66
2023/01/17 05:09:09;;;;;;;4.37;1.00;;;;;;;;;;4952453;28;20215;-66
2023/01/17 05:11:34;;;;;;;2.50;0.90;;;;;;;;;;4954052;28;20234;-66
2023/01/17 05:13:59;;;;;;;2.83;1.30;;;;;;;;;;4957123;28;20214;-66
2023/01/17 05:16:25;;;;;;;1.40;1.10;;;;;;;;;;4955894;28;20218;-66
2023/01/17 05:18:51;;;;;;;3.77;1.10;;;;;;;;;;4956994;28;20246;-66
2023/01/17 05:21:17;;;;;;;2.97;1.30;;;;;;;;;;4956365;28;20214;-66
2023/01/17 05:23:42;;;;;;;4.10;1.20;;;;;;;;;;4956618;28;20215;-66
2023/01/17 05:26:07;;;;;;;3.37;1.33;;;;;;;;;;4956441;28;20696;-66
2023/01/17 05:28:33;;;;;;;3.13;1.30;;;;;;;;;;4956128;28;20647;-66
2023/01/17 05:30:58;;;;;;;4.33;1.40;;;;;;;;;;4956888;28;20227;-66
2023/01/17 05:33:23;;;;;;;4.13;2.47;;;;;;;;;;4956367;28;20631;-66
2023/01/17 05:35:49;;;;;;;17.20;12.70;;;;;;;;;;4963043;28;20253;-66
2023/01/17 05:38:14;;;;;;;6.03;2.20;;;;;;;;;;4975539;28;20220;-66
2023/01/17 05:40:39;;;;;;;4.77;1.90;;;;;;;;;;4976005;28;20275;-66
2023/01/17 05:43:04;;;;;;;3.13;1.40;;;;;;;;;;4975104;28;20218;-65
2023/01/17 05:45:30;;;;;;;3.70;1.50;;;;;;;;;;4976055;28;20221;-66
2023/01/17 05:47:56;;;;;;;4.00;1.50;;;;;;;;;;4975949;28;20332;-66
2023/01/17 05:50:23;;;;;;;3.43;1.10;;;;;;;;;;4972007;28;20233;-66
2023/01/17 05:52:55;;;;;;;3.97;1.40;;;;;;;;;;4956493;28;20214;-66
2023/01/17 05:55:20;;;;;;;3.60;1.50;;;;;;;;;;4972612;28;20303;-66
2023/01/17 05:57:46;;;;;;;4.33;1.23;;;;;;;;;;4975159;28;20755;-66
2023/01/17 06:00:11;;;;;;;3.83;1.57;;;;;;;;;;4975460;28;20322;-66
2023/01/17 06:02:37;;;;;;;7.70;4.80;;;;;;;;;;4975453;28;20210;-64
2023/01/17 06:05:02;;;;;;;4.00;2.33;;;;;;;;;;4969010;28;20345;-64
2023/01/17 06:07:27;;;;;;;5.57;1.93;;;;;;;;;;4947590;28;20268;-65
2023/01/17 06:09:53;;;;;;;3.80;1.60;;;;;;;;;;4946267;28;20260;-65
2023/01/17 06:12:18;;;;;;;5.80;1.90;;;;;;;;;;4941343;28;20230;-65
2023/01/17 06:14:43;;;;;;;4.67;1.40;;;;;;;;;;4938767;28;20309;-65
2023/01/17 06:17:09;;;;;;;3.63;1.43;;;;;;;;;;4938245;28;20222;-66
2023/01/17 06:19:34;;;;;;;3.93;1.40;;;;;;;;;;4941700;28;20273;-66
2023/01/17 06:21:59;;;;;;;2.97;1.20;;;;;;;;;;4946219;28;20222;-66
2023/01/17 06:24:25;;;;;;;4.67;1.40;;;;;;;;;;4945026;28;20237;-66
2023/01/17 06:26:50;;;;;;;4.07;1.20;;;;;;;;;;4945500;28;20227;-66
2023/01/17 06:29:15;;;;;;;2.83;1.20;;;;;;;;;;4946082;28;20215;-66
2023/01/17 06:31:41;;;;;;;4.00;1.40;;;;;;;;;;4945524;28;20231;-66
2023/01/17 06:34:06;;;;;;;6.10;1.50;;;;;;;;;;4943752;28;20600;-65
2023/01/17 06:36:31;;;;;;;3.60;1.40;;;;;;;;;;4925358;28;20710;-66
2023/01/17 06:38:57;;;;;;;3.20;1.13;;;;;;;;;;4918146;29;20227;-66
2023/01/17 06:41:24;;;;;;;3.63;1.40;;;;;;;;;;4919412;29;20283;-66
2023/01/17 06:43:51;;;;;;;5.17;1.20;;;;;;;;;;4926591;29;20219;-66
2023/01/17 06:46:16;;;;;;;4.07;1.20;;;;;;;;;;4944163;28;20218;-66
2023/01/17 06:48:42;;;;;;;4.00;1.13;;;;;;;;;;4945189;28;20564;-66
2023/01/17 06:51:07;;;;;;;5.40;1.27;;;;;;;;;;4936760;28;20251;-65
2023/01/17 06:53:33;;;;;;;5.20;1.20;;;;;;;;;;4926798;28;20670;-66
2023/01/17 06:55:58;;;;;;;3.37;1.43;;;;;;;;;;4928522;29;20601;-66
2023/01/17 06:58:24;;;;;;;6.00;1.70;;;;;;;;;;4919276;29;20666;-66
2023/01/17 07:00:49;;;;;;;5.27;1.90;;;;;;;;;;4917711;29;20315;-66
2023/01/17 07:03:18;;;;;;;4.70;1.67;;;;;;;;;;4918258;29;21017;-66
2023/01/17 07:05:44;;;;;;;5.63;1.60;;;;;;;;;;4924763;28;20223;-66
2023/01/17 07:08:09;;;;;;;5.07;1.70;;;;;;;;;;4925532;29;20215;-66
2023/01/17 07:10:34;;;;;;;4.33;1.53;;;;;;;;;;4926652;29;20231;-66
2023/01/17 07:13:00;;;;;;;6.23;2.00;;;;;;;;;;4925279;29;20909;-68
2023/01/17 07:15:25;;;;;;;3.47;1.70;;;;;;;;;;4926311;29;20253;-69
2023/01/17 07:17:50;;;;;;;4.03;1.63;;;;;;;;;;4926784;29;20241;-70
2023/01/17 07:20:16;;;;;;;6.37;2.10;;;;;;;;;;4920950;29;20862;-69
2023/01/17 07:22:44;;;;;;;4.03;1.83;;;;;;;;;;4918618;29;20522;-68
2023/01/17 07:25:09;;;;;;;4.90;1.77;;;;;;;;;;4918703;29;20211;-68
2023/01/17 07:27:34;;;;;;;8.13;1.93;;;;;;;;;;4923351;29;20206;-68
2023/01/17 07:30:00;;;;;;;5.10;1.80;;;;;;;;;;4925987;29;20222;-69
2023/01/17 07:32:25;;;;;;;4.27;1.90;;;;;;;;;;4925888;29;20223;-68
2023/01/17 07:34:50;;;;;;;4.97;2.10;;;;;;;;;;4925918;29;20242;-68
2023/01/17 07:37:16;;;;;;;5.40;1.83;;;;;;;;;;4925611;29;20310;-68
2023/01/17 07:39:41;;;;;;;4.93;2.17;;;;;;;;;;4926414;29;20749;-69
2023/01/17 07:42:06;;;;;;;5.03;3.40;;;;;;;;;;4923906;29;20254;-68
2023/01/17 07:44:32;;;;;;;8.83;5.57;;;;;;;;;;4919061;29;20215;-66
2023/01/17 07:46:57;;;;;;;9.23;5.57;;;;;;;;;;4919033;29;20604;-67
2023/01/17 07:49:22;;;;;;;8.63;5.70;;;;;;;;;;4919362;29;20231;-67
2023/01/17 07:51:48;;;;;;;7.53;3.13;;;;;;;;;;4927343;29;20227;-67
2023/01/17 07:54:13;;;;;;;6.57;2.40;;;;;;;;;;4925930;28;20217;-67
2023/01/17 07:56:38;;;;;;;4.60;2.23;;;;;;;;;;4926087;29;20678;-64
2023/01/17 07:59:04;;;;;;;4.57;2.23;;;;;;;;;;4927318;29;20203;-65
2023/01/17 08:01:30;;;;;;;4.70;2.40;;;;;;;;;;4931662;29;20225;-65
2023/01/17 08:03:55;;;;;;;5.53;2.03;;;;;;;;;;4952729;28;20314;-65
2023/01/17 08:06:22;;;;;;;4.70;2.20;;;;;;;;;;4953004;28;20214;-65
2023/01/17 08:08:47;;;;;;;3.60;1.93;;;;;;;;;;4936240;29;20218;-63
2023/01/17 08:11:12;;;;;;;5.50;2.37;;;;;;;;;;4952259;28;20273;-65
2023/01/17 08:13:38;;;;;;;5.30;2.37;;;;;;;;;;4952917;28;20268;-65
2023/01/17 08:16:04;;;;;;;4.20;2.53;;;;;;;;;;4953158;28;20215;-66
2023/01/17 08:18:29;;;;;;;5.17;2.33;;;;;;;;;;4952707;28;20665;-65
2023/01/17 08:20:54;;;;;;;5.73;2.40;;;;;;;;;;4953055;28;20225;-65
2023/01/17 08:23:20;;;;;;;6.80;2.67;;;;;;;;;;4951844;28;20231;-65
2023/01/17 08:25:45;;;;;;;6.80;3.30;;;;;;;;;;4952860;28;20219;-65
2023/01/17 08:28:10;;;;;;;5.63;2.43;;;;;;;;;;4952791;28;20224;-65
2023/01/17 08:30:36;;;;;;;6.20;2.80;;;;;;;;;;4953184;28;20222;-65
2023/01/17 08:33:01;;;;;;;5.30;2.70;;;;;;;;;;4952420;28;20213;-64
2023/01/17 08:35:27;;;;;;;4.90;2.60;;;;;;;;;;4956920;28;20218;-65
2023/01/17 08:37:52;;;;;;;6.40;2.80;;;;;;;;;;4972794;28;20241;-65
2023/01/17 08:40:18;;;;;;;8.73;2.87;;;;;;;;;;4971338;28;20699;-65
2023/01/17 08:42:43;;;;;;;6.50;2.80;;;;;;;;;;4972182;28;20244;-65
2023/01/17 08:45:09;;;;;;;5.83;3.00;;;;;;;;;;4971417;28;20649;-65
2023/01/17 08:47:34;;;;;;;6.97;3.20;;;;;;;;;;4974069;28;20214;-65
2023/01/17 08:50:00;;;;;;;5.90;2.80;;;;;;;;;;4976440;28;20252;-65
2023/01/17 08:52:26;;;;;;;8.03;3.10;;;;;;;;;;4974178;28;20233;-65
2023/01/17 08:54:52;;;;;;;5.90;3.33;;;;;;;;;;4975983;28;20249;-65
2023/01/17 08:57:18;;;;;;;8.87;3.40;;;;;;;;;;4976481;28;20631;-65
2023/01/17 08:59:43;;;;;;;5.30;3.23;;;;;;;;;;4975090;28;20269;-64
2023/01/17 09:02:13;;;;;;;7.47;3.43;;;;;;;;;;4974486;28;20669;-64
2023/01/17 09:04:39;;;;;;;7.07;3.53;;;;;;;;;;4974364;28;20214;-64
2023/01/17 09:07:06;;;;;;;7.50;4.33;;;;;;;;;;4974530;28;20209;-64
2023/01/17 09:09:31;;;;;;;7.13;4.20;;;;;;;;;;4975716;28;20677;-65
2023/01/17 09:11:56;;;;;;;8.13;4.20;;;;;;;;;;4976075;28;20222;-64
2023/01/17 09:14:22;;;;;;;5.93;3.93;;;;;;;;;;4970058;28;20209;-65
2023/01/17 09:16:47;;;;;;;7.20;4.20;;;;;;;;;;4975860;28;20214;-65
2023/01/17 09:19:12;;;;;;;9.83;4.70;;;;;;;;;;4975655;28;20217;-65
2023/01/17 09:21:38;;;;;;;6.70;4.77;;;;;;;;;;4975154;28;20268;-65
2023/01/17 09:24:03;;;;;;;7.47;4.33;;;;;;;;;;4975589;28;20221;-65
2023/01/17 09:26:28;;;;;;;7.07;4.73;;;;;;;;;;4976257;28;20214;-65
2023/01/17 09:28:54;;;;;;;8.27;5.00;;;;;;;;;;4974808;28;20289;-65
2023/01/17 09:31:20;;;;;;;9.37;5.40;;;;;;;;;;4975178;28;20226;-65
2023/01/17 09:33:46;;;;;;;7.33;4.77;;;;;;;;;;4967409;28;20273;-65
2023/01/17 09:36:11;;;;;;;8.93;4.90;;;;;;;;;;4952455;28;20722;-65
2023/01/17 09:38:36;;;;;;;9.33;5.67;;;;;;;;;;4956661;28;20210;-65
2023/01/17 09:41:02;;;;;;;7.27;4.90;;;;;;;;;;4961407;28;20236;-65
2023/01/17 09:43:42;;;;;;;7.97;5.70;;;;;;;;;;4973035;28;20210;-65
2023/01/17 09:46:11;;;;;;;8.10;5.20;;;;;;;;;;4973795;28;20623;-65
2023/01/17 09:48:37;;;;;;;8.73;5.43;;;;;;;;;;4973702;28;20256;-65
2023/01/17 09:51:06;;;;;;;7.53;5.10;;;;;;;;;;4975343;28;20629;-65
2023/01/17 09:53:32;;;;;;;9.77;5.07;;;;;;;;;;4975545;28;20570;-65
2023/01/17 09:55:59;;;;;;;9.47;4.90;;;;;;;;;;4975091;28;20214;-65
2023/01/17 09:58:41;;;;;;;7.73;4.20;;;;;;;;;;4974625;28;20220;-65
2023/01/17 10:01:11;;;;;;;8.10;4.40;;;;;;;;;;4973616;28;20214;-65
2023/01/17 10:03:45;;;;;;;7.40;4.03;;;;;;;;;;4973514;28;20720;-65
2023/01/17 10:06:15;;;;;;;9.73;4.77;;;;;;;;;;4975274;28;20202;-65
2023/01/17 10:08:57;;;;;;;14.53;10.70;;;;;;;;;;4973471;28;20268;-65
2023/01/17 10:11:34;;;;;;;7.60;6.00;;;;;;;;;;4974418;28;20221;-65
2023/01/17 10:14:05;;;;;;;10.77;5.80;;;;;;;;;;4970726;28;20214;-65
2023/01/17 10:16:37;;;;;;;7.97;4.47;;;;;;;;;;4975190;28;20217;-65
2023/01/17 10:19:06;;;;;;;13.43;9.37;;;;;;;;;;4972988;28;20240;-65
2023/01/17 10:21:36;;;;;;;11.80;8.30;;;;;;;;;;4974318;28;20233;-65
2023/01/17 10:24:05;;;;;;;7.63;4.30;;;;;;;;;;4972722;28;20756;-65
2023/01/17 10:26:30;;;;;;;8.57;5.40;;;;;;;;;;4974092;28;20670;-65
2023/01/17 10:28:58;;;;;;;6.80;4.40;;;;;;;;;;4974940;28;20225;-65
2023/01/17 10:31:24;;;;;;;8.30;4.27;;;;;;;;;;4972463;28;20301;-65
2023/01/17 10:33:51;;;;;;;8.67;4.23;;;;;;;;;;4975149;28;20309;-65
2023/01/17 10:36:19;;;;;;;6.20;4.00;;;;;;;;;;4974463;28;20248;-65
2023/01/17 10:38:46;;;;;;;7.05;5.10;;;;;;;;;;4973016;28;20422;-65
2023/01/17 10:41:15;;;;;;;6.30;4.27;;;;;;;;;;4974554;28;20205;-64
2023/01/17 10:43:44;;;;;;;8.27;4.17;;;;;;;;;;4973277;28;20217;-65
2023/01/17 10:46:14;;;;;;;7.30;4.30;;;;;;;;;;4973437;28;20225;-64
2023/01/17 10:48:41;;;;;;;8.63;4.37;;;;;;;;;;4973167;28;20326;-65
2023/01/17 10:51:12;;;;;;;6.00;3.57;;;;;;;;;;4973706;28;20725;-65
2023/01/17 10:53:57;;;;;;;5.77;3.63;;;;;;;;;;4971915;28;20611;-65
2023/01/17 10:56:24;;;;;;;6.40;3.33;;;;;;;;;;4974170;28;20217;-65
2023/01/17 10:58:53;;;;;;;5.73;3.60;;;;;;;;;;4972352;28;20273;-65
2023/01/17 11:01:18;;;;;;;6.80;4.03;;;;;;;;;;4971982;28;20213;-64
2023/01/17 11:03:47;;;;;;;6.80;3.60;;;;;;;;;;4973921;28;20622;-65
2023/01/17 11:06:13;;;;;;;6.77;3.50;;;;;;;;;;4971530;28;20213;-65
2023/01/17 11:08:49;;;;;;;7.20;4.07;;;;;;;;;;4973844;28;20212;-65
2023/01/17 11:11:14;;;;;;;6.00;3.70;;;;;;;;;;4971147;28;20256;-64
2023/01/17 11:13:39;;;;;;;6.60;3.75;;;;;;;;;;4960882;28;20678;-64
2023/01/17 11:16:05;;;;;;;6.35;3.88;;;;;;;;;;4954596;28;20221;-64
2023/01/17 11:18:31;;;;;;;7.17;3.50;;;;;;;;;;4953710;28;20262;-64
2023/01/17 11:21:10;;;;;;;7.00;4.17;;;;;;;;;;4954443;28;20222;-65
2023/01/17 11:23:36;;;;;;;8.17;4.30;;;;;;;;;;4953424;28;20206;-64
2023/01/17 11:26:01;;;;;;;6.17;3.93;;;;;;;;;;4953270;28;20358;-64
2023/01/17 11:28:29;;;;;;;7.83;3.57;;;;;;;;;;4952439;28;20215;-64
2023/01/17 11:30:57;;;;;;;6.20;3.77;;;;;;;;;;4954719;28;20681;-64
2023/01/17 11:33:43;;;;;;;5.07;3.10;;;;;;;;;;4952942;28;20297;-64
2023/01/17 11:36:26;;;;;;;7.60;4.40;;;;;;;;;;4962739;28;20233;-64
2023/01/17 11:38:55;;;;;;;11.33;5.77;;;;;;;;;;4974093;28;20268;-64
2023/01/17 11:41:22;;;;;;;7.97;4.70;;;;;;;;;;4972398;28;20249;-64
2023/01/17 11:43:49;;;;;;;9.33;4.80;;;;;;;;;;4973491;28;20222;-64
2023/01/17 11:46:16;;;;;;;13.37;8.03;;;;;;;;;;4973322;28;20300;-64
2023/01/17 11:48:42;;;;;;;11.30;6.87;;;;;;;;;;4972876;28;20218;-64
2023/01/17 11:51:19;;;;;;;6.27;3.20;;;;;;;;;;4947116;28;20230;-64
2023/01/17 11:53:47;;;;;;;6.43;3.37;;;;;;;;;;4937334;29;20712;-64
2023/01/17 11:56:17;;;;;;;8.88;4.50;;;;;;;;;;4953162;28;20301;-64
2023/01/17 11:58:43;;;;;;;8.33;4.57;;;;;;;;;;4954248;28;20210;-65
2023/01/17 12:01:30;;;;;;;8.00;4.50;;;;;;;;;;4953724;28;20226;-64
2023/01/17 12:03:55;;;;;;;6.13;3.03;;;;;;;;;;4936460;29;20681;-64
2023/01/17 12:06:22;;;;;;;4.77;2.70;;;;;;;;;;4960844;28;20229;-64
2023/01/17 12:08:52;;;;;;;5.20;3.40;;;;;;;;;;4973479;28;20214;-64
2023/01/17 12:11:26;;;;;;;6.30;3.30;;;;;;;;;;4954883;28;20225;-64
2023/01/17 12:14:01;;;;;;;4.17;2.90;;;;;;;;;;4973665;28;20249;-64
2023/01/17 12:16:33;;;;;;;5.03;2.10;;;;;;;;;;4972480;28;20220;-64
2023/01/17 12:18:59;;;;;;;3.07;2.30;;;;;;;;;;4973301;28;20677;-64
2023/01/17 12:21:35;;;;;;;5.83;2.30;;;;;;;;;;4974720;28;20285;-64
2023/01/17 12:24:04;;;;;;;4.40;2.53;;;;;;;;;;4976049;28;20213;-64
2023/01/17 12:26:32;;;;;;;3.57;2.00;;;;;;;;;;4977094;28;20217;-65
2023/01/17 12:29:16;;;;;;;3.78;2.20;;;;;;;;;;4972861;28;20300;-65
2023/01/17 12:32:01;;;;;;;6.37;4.00;;;;;;;;;;4975990;28;20229;-65
2023/01/17 12:34:28;;;;;;;5.07;2.40;;;;;;;;;;4976770;28;20683;-65
2023/01/17 12:36:53;;;;;;;5.03;1.90;;;;;;;;;;4971863;28;20716;-65
2023/01/17 12:39:20;;;;;;;5.40;2.20;;;;;;;;;;4975873;28;20222;-65
2023/01/17 12:41:45;;;;;;;4.28;1.88;;;;;;;;;;4959368;28;20304;-65
2023/01/17 12:44:12;;;;;;;3.17;2.00;;;;;;;;;;4975164;28;20361;-65
2023/01/17 12:46:41;;;;;;;3.85;1.92;;;;;;;;;;4975116;28;20296;-65
2023/01/17 12:49:08;;;;;;;5.88;1.90;;;;;;;;;;4974610;28;20220;-64
2023/01/17 12:51:35;;;;;;;4.23;2.00;;;;;;;;;;4975442;28;20232;-64
2023/01/17 12:54:03;;;;;;;2.80;1.60;;;;;;;;;;4967036;28;20205;-64
2023/01/17 12:56:28;;;;;;;3.00;1.60;;;;;;;;;;4951124;28;20628;-65
2023/01/17 12:58:54;;;;;;;3.70;1.90;;;;;;;;;;4958152;28;20250;-66
2023/01/17 13:01:23;;;;;;;2.93;1.60;;;;;;;;;;4946131;28;20253;-66
2023/01/17 13:04:07;;;;;;;3.95;1.67;;;;;;;;;;4951051;28;20297;-65
2023/01/17 13:06:42;;;;;;;3.95;1.63;;;;;;;;;;4971095;28;20260;-65
2023/01/17 13:09:07;;;;;;;5.77;1.73;;;;;;;;;;4965060;28;20221;-65
2023/01/17 13:11:37;;;;;;;4.95;1.73;;;;;;;;;;4966714;28;20234;-65
2023/01/17 13:14:04;;;;;;;2.65;1.67;;;;;;;;;;4974641;28;20221;-65
2023/01/17 13:16:41;;;;;;;3.38;1.50;;;;;;;;;;4949767;28;20293;-65
2023/01/17 13:19:13;;;;;;;3.28;1.50;;;;;;;;;;4965334;28;20217;-65
2023/01/17 13:21:38;;;;;;;5.20;1.70;;;;;;;;;;4971560;28;20297;-65
2023/01/17 13:24:09;;;;;;;5.18;1.50;;;;;;;;;;4958506;28;20321;-65
2023/01/17 13:26:35;;;;;;;2.20;1.48;;;;;;;;;;4958727;28;20218;-65
2023/01/17 13:29:04;;;;;;;4.15;1.60;;;;;;;;;;4975204;28;20621;-65
2023/01/17 13:31:32;;;;;;;3.00;1.57;;;;;;;;;;4958943;28;20225;-65
2023/01/17 13:34:02;;;;;;;2.17;1.30;;;;;;;;;;4974648;28;20214;-65
2023/01/17 13:36:33;;;;;;;3.00;1.27;;;;;;;;;;4967206;28;20229;-65
2023/01/17 13:39:00;;;;;;;4.95;1.63;;;;;;;;;;4974878;28;20296;-65
2023/01/17 13:41:35;;;;;;;3.22;1.50;;;;;;;;;;4973646;28;20699;-65
2023/01/17 13:47:06;;;;;;;5.22;1.60;;;;;;;;;;4966140;28;20224;-65
2023/01/17 13:49:33;;;;;;;3.05;1.70;;;;;;;;;;4954317;28;20297;-65
2023/01/17 13:52:00;;;;;;;5.57;2.20;;;;;;;;;;4971615;28;20276;-66
2023/01/17 13:54:30;;;;;;;2.97;1.40;;;;;;;;;;4975462;28;20213;-65
2023/01/17 13:57:26;;;;;;;6.70;2.83;;;;;;;;;;4975062;28;20346;-65
2023/01/17 13:59:51;;;;;;;5.23;1.60;;;;;;;;;;4975061;28;20210;-66
2023/01/17 14:02:35;;;;;;;5.85;2.00;;;;;;;;;;4973364;28;20210;-65
2023/01/17 14:05:08;;;;;;;5.43;1.70;;;;;;;;;;4975244;28;20582;-65
2023/01/17 14:07:34;;;;;;;4.97;1.95;;;;;;;;;;4958354;28;20296;-65
2023/01/17 14:09:59;;;;;;;3.87;1.67;;;;;;;;;;4955408;28;20222;-65
2023/01/17 14:12:26;;;;;;;4.50;1.77;;;;;;;;;;4961541;28;20226;-65
2023/01/17 14:14:54;;;;;;;5.05;2.20;;;;;;;;;;4975252;28;20304;-65
2023/01/17 14:17:21;;;;;;;4.60;1.80;;;;;;;;;;4974351;28;20661;-65
2023/01/17 14:19:47;;;;;;;3.53;1.70;;;;;;;;;;4975223;28;20222;-65
2023/01/17 14:22:13;;;;;;;4.22;2.00;;;;;;;;;;4973404;28;20233;-65
2023/01/17 14:24:58;;;;;;;7.10;3.10;;;;;;;;;;4974571;28;20202;-65
2023/01/17 14:27:23;;;;;;;4.93;1.87;;;;;;;;;;4974356;28;20237;-65
2023/01/17 14:29:51;;;;;;;4.17;2.30;;;;;;;;;;4973841;28;20248;-65
2023/01/17 14:32:18;;;;;;;4.53;1.73;;;;;;;;;;4972555;28;20764;-65
2023/01/17 14:34:44;;;;;;;3.50;1.60;;;;;;;;;;4975083;28;20694;-65
2023/01/17 14:37:14;;;;;;;4.63;2.20;;;;;;;;;;4955950;28;20233;-65
2023/01/17 14:39:46;;;;;;;3.37;1.43;;;;;;;;;;4955699;28;20222;-65
2023/01/17 14:42:14;;;;;;;2.17;1.23;;;;;;;;;;4954791;28;20218;-65
2023/01/17 14:44:39;;;;;;;3.17;1.50;;;;;;;;;;4953725;28;20704;-66
2023/01/17 14:47:04;;;;;;;2.53;1.10;;;;;;;;;;4955091;28;20309;-65
2023/01/17 14:49:29;;;;;;;2.03;1.07;;;;;;;;;;4955257;28;20268;-65
2023/01/17 14:51:59;;;;;;;3.23;1.33;;;;;;;;;;4939446;28;20301;-65
2023/01/17 14:54:24;;;;;;;1.88;0.90;;;;;;;;;;4943912;28;20710;-65
2023/01/17 14:56:50;;;;;;;1.70;1.10;;;;;;;;;;4953582;28;20313;-65
2023/01/17 14:59:16;;;;;;;3.60;1.15;;;;;;;;;;4926931;28;20222;-65
2023/01/17 15:01:42;;;;;;;1.97;0.90;;;;;;;;;;4939533;28;20222;-65
2023/01/17 15:04:11;;;;;;;2.13;1.00;;;;;;;;;;4941785;28;20227;-65
2023/01/17 15:06:44;;;;;;;2.45;1.10;;;;;;;;;;5062557;27;21088;-64
2023/01/17 15:09:11;;;;;;;4.77;1.20;;;;;;;;;;5042791;28;20217;-64
2023/01/17 15:11:37;;;;;;;3.07;1.30;;;;;;;;;;5042138;28;20871;-64
2023/01/17 15:14:04;;;;;;;2.33;1.30;;;;;;;;;;5022704;28;20211;-64
2023/01/17 15:16:32;;;;;;;4.23;1.40;;;;;;;;;;5042322;28;20233;-64
2023/01/17 15:18:58;;;;;;;2.37;1.23;;;;;;;;;;5042798;28;20690;-64
2023/01/17 15:21:25;;;;;;;2.47;1.40;;;;;;;;;;5035598;28;20211;-64
2023/01/17 15:23:51;;;;;;;2.97;1.40;;;;;;;;;;5017165;28;20555;-64
2023/01/17 15:26:18;;;;;;;4.27;1.60;;;;;;;;;;5013974;28;20231;-64
2023/01/17 15:28:44;;;;;;;3.93;1.70;;;;;;;;;;5019934;28;20219;-64
2023/01/17 15:31:17;;;;;;;4.00;1.73;;;;;;;;;;5021102;28;20219;-64
2023/01/17 15:33:43;;;;;;;3.93;2.00;;;;;;;;;;5023142;28;20333;-64
2023/01/17 15:36:22;;;;;;;5.23;2.00;;;;;;;;;;5021086;28;20231;-64
2023/01/17 15:38:50;;;;;;;3.63;1.50;;;;;;;;;;5023737;28;20243;-64
2023/01/17 15:41:15;;;;;;;2.47;1.20;;;;;;;;;;5019781;28;20242;-64
2023/01/17 15:43:41;;;;;;;2.10;1.10;;;;;;;;;;5019999;28;21333;-64
2023/01/17 15:46:15;;;;;;;2.63;1.13;;;;;;;;;;5034242;28;20234;-64
2023/01/17 15:48:43;;;;;;;2.43;1.10;;;;;;;;;;5017074;28;20300;-64
2023/01/17 15:51:09;;;;;;;4.33;2.23;;;;;;;;;;5013201;28;20232;-64
2023/01/17 15:53:35;;;;;;;11.70;6.90;;;;;;;;;;5023370;28;20303;-64
2023/01/17 15:56:00;;;;;;;12.23;7.60;;;;;;;;;;4996989;28;20250;-64
2023/01/17 15:58:26;;;;;;;9.10;5.70;;;;;;;;;;5023331;28;20318;-64
2023/01/17 16:00:52;;;;;;;6.70;3.03;;;;;;;;;;5041870;28;20222;-64
2023/01/17 16:03:18;;;;;;;5.57;3.07;;;;;;;;;;5040723;28;20207;-63
2023/01/17 16:05:43;;;;;;;4.20;2.23;;;;;;;;;;5037103;28;20298;-64
2023/01/17 16:08:09;;;;;;;3.80;2.27;;;;;;;;;;5014526;28;21036;-64